Main page
METAR-TAF:

METAR-TAF

Airports :

RAF Benson

Benson, England

latitude: 51-37N, longitude: 001-05W, elevation: 63 m

Current weather observation

The report was made 35 minutes ago, at 20:50 UTC
Wind 8 kt from the East/Southeast
Temperature 15°C
Humidity 63%
Pressure 1019 hPa
Visibility 10 km or more

METAR: EGUB 202050Z AUTO 11008KT 9999 // NCD 15/08 Q1019

Time: 22:25 (21:25 UTC)


TAF: missing

Weather observations and forecasts of more than 4000 airports (METAR and TAF reports).

The available stations are represented by yellow and red dots on the map.

Hover mouse over dot to see the name of the station.

Then click to see weather observations and forecasts.

To change the map : click on the green buttons with a black cross to zoom in, on the green button with a dash to zoom out, or on the green arrows for adjacent maps.


METAR-TAF: